Terminal Aerodrome Forecast
Issued by NWS

Home | Current Version | Previous Version | Text Only | Print | Product List | Glossary On
Versions: 1 2 3 4 5 6 7 8 9 10 11 12
322
FTUS43 KMQT 281728
TAFSAW
TAF
KSAW 281728Z 2818/2918 04005KT P6SM FEW250
     FM290600 01004KT P6SM SCT005
     FM291700 06005KT P6SM SCT110=

USA.gov is the U.S. government's official web portal to all federal, state and local government web resources and services.